Romeo, Michigan
Current Conditions -  °F | °C
As of 2:55 PM on Thursday 30 Oct 2014 (Local Time) from KMTC Reporting Station
Overcast Overcast  
Wind Chill: 49°   Ceiling: 4000
Heat Index: 49°   Visibility: 12mi
Dew Point: 34°   Wind: 3mph
Humidity: 57%   Direction: 330°NNW
Pressure: 30.06"   Gusts: NA
Location:  42.8°N, 83.01°W
Report Text: KMTC 301855Z 33003KT 12SM BKN040 OVC150 09/01 A3006 RMK SLP189 T00940012
Loading
Personal Weather Stations






























Interactive Weather Map
Tropical Storm Tracking
New forecast layout! Learn more

10-Day Weather Forecast

Advertisements
Track Severe Weather on mobile